This is the latest recevied weather packets stored in our database for station/object WB0RXX. If no packets are shown the sender has not sent any weather packets the latest 10 day(s).
| Time | Temp. | Humidity | Pressure | Rain* | Wind** | Luminosity | Snow |
|---|---|---|---|---|---|---|---|
| 1777870806 | 13.33° C | 41% | 1002 hPa | 0 mm | - | - | - |
| 1777870204 | 13.89° C | 41% | 1002.1 hPa | 0 mm | - | - | - |
| 1777869604 | 13.89° C | 40% | 1002.2 hPa | 0 mm | - | - | - |
| 1777869004 | 13.89° C | 41% | 1002.4 hPa | 0 mm | - | - | - |
| 1777868403 | 13.89° C | 41% | 1002.6 hPa | 0 mm | - | - | - |
| 1777867804 | 13.89° C | 41% | 1002.8 hPa | 0 mm | - | - | - |
| 1777867205 | 14.44° C | 40% | 1002.9 hPa | 0 mm | - | - | - |
| 1777866603 | 14.44° C | 40% | 1003.1 hPa | 0 mm | - | - | - |
| 1777866004 | 14.44° C | 41% | 1003.4 hPa | 0 mm | - | - | - |
| 1777865404 | 14.44° C | 42% | 1003.6 hPa | 0 mm | - | - | - |
| 1777864804 | 14.44° C | 43% | 1003.8 hPa | 0 mm | - | - | - |
| 1777864205 | 14.44° C | 42% | 1004 hPa | 0 mm | - | - | - |
| 1777863604 | 15° C | 41% | 1004 hPa | 0 mm | - | - | - |
| 1777863004 | 15° C | 40% | 1004.2 hPa | 0 mm | - | - | - |
| 1777862404 | 15.56° C | 36% | 1004.3 hPa | 0 mm | - | - | - |
| 1777861804 | 16.11° C | 36% | 1004.3 hPa | 0 mm | - | - | - |
| 1777861203 | 17.22° C | 34% | 1004.4 hPa | 0 mm | - | - | - |
| 1777860604 | 17.78° C | 33% | 1004.5 hPa | 0 mm | - | - | - |
| 1777860004 | 18.33° C | 31% | 1004.5 hPa | 0 mm | - | - | - |
| 1777859403 | 18.89° C | 30% | 1004.6 hPa | 0 mm | - | - | - |
| 1777858803 | 18.89° C | 29% | 1004.8 hPa | 0 mm | - | - | - |
| 1777858203 | 19.44° C | 29% | 1004.9 hPa | 0 mm | - | - | - |
| 1777857603 | 20° C | 28% | 1004.9 hPa | 0 mm | - | - | - |
| 1777857003 | 20° C | 28% | 1004.9 hPa | 0 mm | - | - | - |
| 1777856403 | 20.56° C | 28% | 1005 hPa | 0 mm | - | - | - |
* Rain latest hour (hover to see other rain measurements)
** Current wind speed in m/s (hover to see current wind gust speed)